Terminal Aerodrome Forecast
Issued by NWS Twin Cities, MN

Home | Current Version | Previous Version | Text Only | Print | Product List | Glossary Off
Versions: 1 2 3 4 5 6 7 8 9 10 11 12

963
FTUS43 KMPX 180520
TAFEAU
TAF
KEAU 180520Z 1806/1906 20006KT P6SM SKC
     FM181600 18010KT P6SM FEW250
     FM182000 22012G22KT P6SM FEW250
     FM190000 25008KT P6SM FEW250
     FM190400 28004KT P6SM FEW250=

USA.gov is the U.S. government's official web portal to all federal, state and local government web resources and services.